Aeroporto :
LOGIN :

Iscrizione | Disclaimer

   EN    FR    IT 

 










Sommario :    VFR   VFR Marginale   IFR   IFR Intensivo   IFR Molto Intensivo
Visibilità : 
Base nubi : 
>= 8 km
>= 3000ft
5 / 8 km
1000 / 3000 ft
1500m / 5 km
500 / 1000 ft
800 / 1500m
200 / 500 ft
< 800m
< 200 ft
Simboli :   Temporali  Nebbia  Neve Forte  Precipitazioni Forti  Vento > 20 kt
SIGMETs :   Varie  Temporali  Ghiacco  Turbolenza  Onda orograficha  Ceneri Vulcaniche






- Altitudine del aeroporto : 290 ft
- Codice IATA : ACI


EGJA - Alderney

ULTIMO METAR :
  • 191750Z 28006KT 250V310 9999 FEW020 11/08 Q1004

METARs OBSOLETI :
  • 191720Z 27006KT 9999 FEW020 11/08 Q1004
  • 191650Z 28008KT 9999 FEW020 13/09 Q1003
  • 191620Z 26008KT 9999 FEW020 13/08 Q1003
  • 191550Z 27007KT 9999 FEW020 13/10 Q1003
  • 191520Z 26009KT 9999 FEW020CB 14/10 Q1003

TAF TAF EGJA
Valido dal 19 a 15 ore il 20 a 00 ore UTC


191358Z 1915/2000 27011KT 9999 FEW015CB
PROB30
TEMPO 1915/1918 8000 SHRA BKN015CB
BECMG 1920/1922 32009KT



MetMap, La meteo Aeronautica in un colpo d'occhio ! - Copyright ORBIFLY Dicembre 2007 - Disclaimer

ORBIFLY MET'MAP TEAM :

Programmazione e sviluppo : Alexandra Zaïnal
Concezione e sviluppo : Baudouin d'Aumeries
Co-Programmazione e sviluppo : Marc-Olivier Méhu
Supporto tecnico e logistico : Manuel Goepfert
Aiuto per la traduzione : Arnaldo La Scala

Contatto : metmap@orbifly.com




FONTI E CREDITI :

   NOAA